sensor_id;sensor_type;location;lat;lon;timestamp;P1;durP1;ratioP1;P2;durP2;ratioP2
9900;SDS011;4989;48.772;9.154;2023-04-25T00:02:44;45.80;;;43.87;;
9900;SDS011;4989;48.772;9.154;2023-04-25T00:07:48;20.90;;;19.80;;
9900;SDS011;4989;48.772;9.154;2023-04-25T00:12:51;20.37;;;19.27;;
9900;SDS011;4989;48.772;9.154;2023-04-25T00:17:53;21.80;;;20.60;;
9900;SDS011;4989;48.772;9.154;2023-04-25T00:22:55;19.30;;;18.23;;
9900;SDS011;4989;48.772;9.154;2023-04-25T00:27:57;37.27;;;35.63;;
9900;SDS011;4989;48.772;9.154;2023-04-25T00:33:00;74.20;;;71.33;;
9900;SDS011;4989;48.772;9.154;2023-04-25T00:38:02;71.57;;;68.67;;
9900;SDS011;4989;48.772;9.154;2023-04-25T00:43:04;85.97;;;82.67;;
9900;SDS011;4989;48.772;9.154;2023-04-25T00:48:06;82.10;;;78.93;;
9900;SDS011;4989;48.772;9.154;2023-04-25T00:53:09;80.47;;;77.37;;
9900;SDS011;4989;48.772;9.154;2023-04-25T00:58:11;65.50;;;62.87;;
9900;SDS011;4989;48.772;9.154;2023-04-25T01:03:14;64.30;;;62.00;;
9900;SDS011;4989;48.772;9.154;2023-04-25T01:08:23;14.53;;;13.80;;
9900;SDS011;4989;48.772;9.154;2023-04-25T01:13:29;39.97;;;38.63;;
9900;SDS011;4989;48.772;9.154;2023-04-25T01:18:33;59.13;;;57.03;;
9900;SDS011;4989;48.772;9.154;2023-04-25T01:23:35;47.33;;;45.70;;
9900;SDS011;4989;48.772;9.154;2023-04-25T01:28:39;56.03;;;53.97;;
9900;SDS011;4989;48.772;9.154;2023-04-25T01:33:44;49.87;;;47.93;;
9900;SDS011;4989;48.772;9.154;2023-04-25T01:38:47;20.30;;;19.37;;
9900;SDS011;4989;48.772;9.154;2023-04-25T01:43:49;1.20;;;1.20;;
9900;SDS011;4989;48.772;9.154;2023-04-25T05:46:06;276.30;;;191.02;;
9900;SDS011;4989;48.772;9.154;2023-04-25T05:51:27;227.67;;;116.70;;
9900;SDS011;4989;48.772;9.154;2023-04-25T06:02:04;299.73;;;259.47;;
9900;SDS011;4989;48.772;9.154;2023-04-25T06:27:19;251.07;;;175.13;;
9900;SDS011;4989;48.772;9.154;2023-04-25T06:37:23;309.57;;;271.20;;
9900;SDS011;4989;48.772;9.154;2023-04-25T07:08:18;300.30;;;231.13;;
9900;SDS011;4989;48.772;9.154;2023-04-25T08:50:15;244.52;;;129.70;;
9900;SDS011;4989;48.772;9.154;2023-04-25T09:00:30;263.52;;;165.98;;
9900;SDS011;4989;48.772;9.154;2023-04-25T09:10:37;285.20;;;207.30;;
9900;SDS011;4989;48.772;9.154;2023-04-25T09:21:09;377.73;;;339.23;;
9900;SDS011;4989;48.772;9.154;2023-04-25T09:26:19;523.50;;;169.10;;
9900;SDS011;4989;48.772;9.154;2023-04-25T09:36:31;269.60;;;194.70;;
9900;SDS011;4989;48.772;9.154;2023-04-25T09:47:01;318.10;;;280.98;;
9900;SDS011;4989;48.772;9.154;2023-04-25T09:57:18;283.33;;;221.10;;
9900;SDS011;4989;48.772;9.154;2023-04-25T10:07:36;252.83;;;157.07;;
9900;SDS011;4989;48.772;9.154;2023-04-25T10:17:47;271.73;;;193.75;;
9900;SDS011;4989;48.772;9.154;2023-04-25T10:27:59;294.98;;;236.70;;
9900;SDS011;4989;48.772;9.154;2023-04-25T10:38:19;314.95;;;279.45;;
9900;SDS011;4989;48.772;9.154;2023-04-25T10:48:33;235.33;;;158.07;;
9900;SDS011;4989;48.772;9.154;2023-04-25T10:53:36;238.13;;;159.60;;
9900;SDS011;4989;48.772;9.154;2023-04-25T10:58:42;256.80;;;176.43;;
9900;SDS011;4989;48.772;9.154;2023-04-25T11:03:45;266.07;;;186.00;;
9900;SDS011;4989;48.772;9.154;2023-04-25T11:08:52;234.23;;;94.53;;
9900;SDS011;4989;48.772;9.154;2023-04-25T11:13:54;231.53;;;98.33;;
9900;SDS011;4989;48.772;9.154;2023-04-25T11:18:57;235.17;;;102.87;;
9900;SDS011;4989;48.772;9.154;2023-04-25T11:24:00;242.30;;;122.63;;
9900;SDS011;4989;48.772;9.154;2023-04-25T11:29:03;253.03;;;161.57;;
9900;SDS011;4989;48.772;9.154;2023-04-25T11:34:05;275.70;;;199.63;;
9900;SDS011;4989;48.772;9.154;2023-04-25T11:39:08;266.17;;;193.90;;
9900;SDS011;4989;48.772;9.154;2023-04-25T11:44:10;264.53;;;205.27;;
9900;SDS011;4989;48.772;9.154;2023-04-25T11:49:15;259.53;;;191.77;;
9900;SDS011;4989;48.772;9.154;2023-04-25T11:54:19;245.23;;;155.40;;
9900;SDS011;4989;48.772;9.154;2023-04-25T11:59:23;218.70;;;100.07;;
9900;SDS011;4989;48.772;9.154;2023-04-25T12:04:29;224.37;;;85.20;;
9900;SDS011;4989;48.772;9.154;2023-04-25T12:09:34;234.47;;;124.00;;
9900;SDS011;4989;48.772;9.154;2023-04-25T12:14:36;248.10;;;167.00;;
9900;SDS011;4989;48.772;9.154;2023-04-25T12:19:38;249.17;;;169.53;;
9900;SDS011;4989;48.772;9.154;2023-04-25T12:24:44;254.17;;;177.13;;
9900;SDS011;4989;48.772;9.154;2023-04-25T12:29:55;248.83;;;171.27;;
9900;SDS011;4989;48.772;9.154;2023-04-25T12:34:59;220.57;;;83.53;;
9900;SDS011;4989;48.772;9.154;2023-04-25T12:40:02;207.33;;;98.93;;
9900;SDS011;4989;48.772;9.154;2023-04-25T12:45:05;239.07;;;161.43;;
9900;SDS011;4989;48.772;9.154;2023-04-25T12:50:08;251.20;;;165.57;;
9900;SDS011;4989;48.772;9.154;2023-04-25T12:55:11;248.57;;;161.13;;
9900;SDS011;4989;48.772;9.154;2023-04-25T13:00:14;262.07;;;161.03;;
9900;SDS011;4989;48.772;9.154;2023-04-25T13:05:19;247.77;;;149.20;;
9900;SDS011;4989;48.772;9.154;2023-04-25T13:10:21;224.10;;;101.30;;
9900;SDS011;4989;48.772;9.154;2023-04-25T13:15:24;221.40;;;88.70;;
9900;SDS011;4989;48.772;9.154;2023-04-25T13:20:26;226.83;;;91.70;;
9900;SDS011;4989;48.772;9.154;2023-04-25T13:25:28;234.73;;;98.93;;
9900;SDS011;4989;48.772;9.154;2023-04-25T13:30:31;235.33;;;104.73;;
9900;SDS011;4989;48.772;9.154;2023-04-25T13:35:34;246.67;;;137.70;;
9900;SDS011;4989;48.772;9.154;2023-04-25T13:40:38;269.13;;;186.03;;
9900;SDS011;4989;48.772;9.154;2023-04-25T13:45:40;277.90;;;204.20;;
9900;SDS011;4989;48.772;9.154;2023-04-25T13:50:42;286.67;;;228.73;;
9900;SDS011;4989;48.772;9.154;2023-04-25T13:55:45;282.53;;;214.30;;
9900;SDS011;4989;48.772;9.154;2023-04-25T14:00:47;281.93;;;214.87;;
9900;SDS011;4989;48.772;9.154;2023-04-25T14:05:49;273.60;;;194.93;;
9900;SDS011;4989;48.772;9.154;2023-04-25T14:10:52;277.40;;;142.03;;
9900;SDS011;4989;48.772;9.154;2023-04-25T14:15:54;244.13;;;122.60;;
9900;SDS011;4989;48.772;9.154;2023-04-25T14:20:57;249.87;;;133.80;;
9900;SDS011;4989;48.772;9.154;2023-04-25T14:25:59;245.37;;;127.27;;
9900;SDS011;4989;48.772;9.154;2023-04-25T14:31:02;250.57;;;136.23;;
9900;SDS011;4989;48.772;9.154;2023-04-25T14:36:04;264.73;;;184.00;;
9900;SDS011;4989;48.772;9.154;2023-04-25T14:41:07;284.77;;;217.00;;
9900;SDS011;4989;48.772;9.154;2023-04-25T14:46:09;278.10;;;220.90;;
9900;SDS011;4989;48.772;9.154;2023-04-25T14:51:12;276.67;;;222.53;;
9900;SDS011;4989;48.772;9.154;2023-04-25T14:56:15;271.57;;;206.43;;
9900;SDS011;4989;48.772;9.154;2023-04-25T15:01:17;270.50;;;213.80;;
9900;SDS011;4989;48.772;9.154;2023-04-25T15:06:22;240.67;;;125.77;;
9900;SDS011;4989;48.772;9.154;2023-04-25T15:11:27;235.67;;;114.67;;
9900;SDS011;4989;48.772;9.154;2023-04-25T15:16:30;241.07;;;126.30;;
9900;SDS011;4989;48.772;9.154;2023-04-25T15:21:32;262.60;;;155.67;;
9900;SDS011;4989;48.772;9.154;2023-04-25T15:26:35;278.37;;;207.37;;
9900;SDS011;4989;48.772;9.154;2023-04-25T15:31:37;288.73;;;227.23;;
9900;SDS011;4989;48.772;9.154;2023-04-25T15:36:39;288.87;;;235.83;;
9900;SDS011;4989;48.772;9.154;2023-04-25T15:41:42;288.60;;;225.83;;
9900;SDS011;4989;48.772;9.154;2023-04-25T15:46:44;295.27;;;253.53;;
9900;SDS011;4989;48.772;9.154;2023-04-25T15:51:47;291.57;;;241.70;;
9900;SDS011;4989;48.772;9.154;2023-04-25T15:56:49;285.57;;;220.97;;
9900;SDS011;4989;48.772;9.154;2023-04-25T16:01:51;262.77;;;176.83;;
9900;SDS011;4989;48.772;9.154;2023-04-25T16:06:54;245.00;;;135.80;;
9900;SDS011;4989;48.772;9.154;2023-04-25T16:11:56;241.47;;;130.77;;
9900;SDS011;4989;48.772;9.154;2023-04-25T16:16:58;253.80;;;149.20;;
9900;SDS011;4989;48.772;9.154;2023-04-25T16:22:01;250.10;;;142.40;;
9900;SDS011;4989;48.772;9.154;2023-04-25T16:27:04;272.40;;;176.80;;
9900;SDS011;4989;48.772;9.154;2023-04-25T16:32:06;287.40;;;210.33;;
9900;SDS011;4989;48.772;9.154;2023-04-25T16:37:08;278.20;;;221.07;;
9900;SDS011;4989;48.772;9.154;2023-04-25T16:42:11;285.60;;;234.80;;
9900;SDS011;4989;48.772;9.154;2023-04-25T16:47:16;287.17;;;233.57;;
9900;SDS011;4989;48.772;9.154;2023-04-25T16:52:20;266.80;;;180.07;;
9900;SDS011;4989;48.772;9.154;2023-04-25T16:57:24;237.30;;;123.90;;
9900;SDS011;4989;48.772;9.154;2023-04-25T17:02:26;248.93;;;126.13;;
9900;SDS011;4989;48.772;9.154;2023-04-25T17:07:28;240.43;;;125.17;;
9900;SDS011;4989;48.772;9.154;2023-04-25T17:12:31;237.73;;;125.77;;
9900;SDS011;4989;48.772;9.154;2023-04-25T17:17:34;253.00;;;159.80;;
9900;SDS011;4989;48.772;9.154;2023-04-25T17:22:36;273.43;;;203.10;;
9900;SDS011;4989;48.772;9.154;2023-04-25T17:27:39;281.90;;;219.37;;
9900;SDS011;4989;48.772;9.154;2023-04-25T17:32:41;277.77;;;212.07;;
9900;SDS011;4989;48.772;9.154;2023-04-25T17:37:43;291.13;;;223.07;;
9900;SDS011;4989;48.772;9.154;2023-04-25T17:42:45;273.90;;;204.93;;
9900;SDS011;4989;48.772;9.154;2023-04-25T17:47:48;285.60;;;229.23;;
9900;SDS011;4989;48.772;9.154;2023-04-25T17:52:50;278.60;;;200.27;;
9900;SDS011;4989;48.772;9.154;2023-04-25T17:57:52;239.90;;;132.17;;
9900;SDS011;4989;48.772;9.154;2023-04-25T18:02:56;231.10;;;106.83;;
9900;SDS011;4989;48.772;9.154;2023-04-25T18:07:58;229.67;;;109.07;;
9900;SDS011;4989;48.772;9.154;2023-04-25T18:13:01;240.20;;;117.60;;
9900;SDS011;4989;48.772;9.154;2023-04-25T18:18:04;250.17;;;131.00;;
9900;SDS011;4989;48.772;9.154;2023-04-25T18:23:15;297.43;;;232.80;;
9900;SDS011;4989;48.772;9.154;2023-04-25T18:28:17;265.47;;;193.23;;
9900;SDS011;4989;48.772;9.154;2023-04-25T18:33:20;282.77;;;218.02;;
9900;SDS011;4989;48.772;9.154;2023-04-25T18:38:26;230.23;;;113.93;;
9900;SDS011;4989;48.772;9.154;2023-04-25T18:43:31;226.30;;;111.20;;
9900;SDS011;4989;48.772;9.154;2023-04-25T18:48:34;242.20;;;154.13;;
9900;SDS011;4989;48.772;9.154;2023-04-25T18:53:36;252.83;;;180.47;;
9900;SDS011;4989;48.772;9.154;2023-04-25T18:58:38;266.17;;;209.97;;
9900;SDS011;4989;48.772;9.154;2023-04-25T19:03:41;216.20;;;179.10;;
9900;SDS011;4989;48.772;9.154;2023-04-25T19:08:45;263.63;;;191.17;;
9900;SDS011;4989;48.772;9.154;2023-04-25T19:13:47;264.97;;;200.70;;
9900;SDS011;4989;48.772;9.154;2023-04-25T19:18:52;270.87;;;207.23;;
9900;SDS011;4989;48.772;9.154;2023-04-25T19:23:55;230.53;;;130.43;;
9900;SDS011;4989;48.772;9.154;2023-04-25T19:34:12;281.97;;;246.17;;
9900;SDS011;4989;48.772;9.154;2023-04-25T19:39:14;267.30;;;212.93;;
9900;SDS011;4989;48.772;9.154;2023-04-25T19:44:16;275.33;;;238.87;;
9900;SDS011;4989;48.772;9.154;2023-04-25T19:49:19;265.27;;;221.90;;
9900;SDS011;4989;48.772;9.154;2023-04-25T19:54:21;219.30;;;105.30;;
9900;SDS011;4989;48.772;9.154;2023-04-25T19:59:24;220.73;;;101.73;;
9900;SDS011;4989;48.772;9.154;2023-04-25T20:04:26;226.23;;;126.07;;
9900;SDS011;4989;48.772;9.154;2023-04-25T20:09:28;241.03;;;170.27;;
9900;SDS011;4989;48.772;9.154;2023-04-25T20:14:30;211.60;;;92.83;;
9900;SDS011;4989;48.772;9.154;2023-04-25T20:19:33;201.50;;;94.10;;
9900;SDS011;4989;48.772;9.154;2023-04-25T20:29:38;289.73;;;213.32;;
9900;SDS011;4989;48.772;9.154;2023-04-25T20:34:42;266.93;;;209.13;;
9900;SDS011;4989;48.772;9.154;2023-04-25T20:39:44;258.87;;;216.77;;
9900;SDS011;4989;48.772;9.154;2023-04-25T20:44:47;271.60;;;209.77;;
9900;SDS011;4989;48.772;9.154;2023-04-25T20:49:49;235.30;;;128.32;;
9900;SDS011;4989;48.772;9.154;2023-04-25T20:54:52;160.68;;;70.20;;
9900;SDS011;4989;48.772;9.154;2023-04-25T21:04:57;302.00;;;259.93;;
9900;SDS011;4989;48.772;9.154;2023-04-25T21:09:59;216.27;;;96.50;;
9900;SDS011;4989;48.772;9.154;2023-04-25T21:15:02;218.57;;;91.13;;
9900;SDS011;4989;48.772;9.154;2023-04-25T21:20:05;247.80;;;173.10;;
9900;SDS011;4989;48.772;9.154;2023-04-25T21:25:12;143.80;;;66.40;;
9900;SDS011;4989;48.772;9.154;2023-04-25T21:30:24;174.43;;;73.10;;
9900;SDS011;4989;48.772;9.154;2023-04-25T21:35:27;186.73;;;90.88;;
9900;SDS011;4989;48.772;9.154;2023-04-25T21:40:29;190.77;;;108.57;;
9900;SDS011;4989;48.772;9.154;2023-04-25T21:45:31;218.90;;;90.47;;
9900;SDS011;4989;48.772;9.154;2023-04-25T21:50:38;416.33;;;373.90;;
9900;SDS011;4989;48.772;9.154;2023-04-25T21:55:40;256.97;;;192.90;;
9900;SDS011;4989;48.772;9.154;2023-04-25T22:00:42;267.13;;;227.00;;
9900;SDS011;4989;48.772;9.154;2023-04-25T22:05:44;267.52;;;219.85;;
9900;SDS011;4989;48.772;9.154;2023-04-25T22:10:47;272.07;;;225.23;;
9900;SDS011;4989;48.772;9.154;2023-04-25T22:20:53;290.85;;;253.55;;
9900;SDS011;4989;48.772;9.154;2023-04-25T22:25:55;238.63;;;109.90;;
9900;SDS011;4989;48.772;9.154;2023-04-25T22:30:57;233.43;;;102.17;;
9900;SDS011;4989;48.772;9.154;2023-04-25T22:35:59;233.10;;;93.17;;
9900;SDS011;4989;48.772;9.154;2023-04-25T22:46:05;322.95;;;285.55;;
9900;SDS011;4989;48.772;9.154;2023-04-25T23:06:22;277.33;;;175.47;;
9900;SDS011;4989;48.772;9.154;2023-04-25T23:16:27;307.27;;;251.27;;
9900;SDS011;4989;48.772;9.154;2023-04-25T23:21:29;197.52;;;81.47;;
9900;SDS011;4989;48.772;9.154;2023-04-25T23:26:31;220.43;;;90.43;;
9900;SDS011;4989;48.772;9.154;2023-04-25T23:31:34;222.47;;;99.50;;
9900;SDS011;4989;48.772;9.154;2023-04-25T23:36:37;247.03;;;182.13;;
9900;SDS011;4989;48.772;9.154;2023-04-25T23:41:39;251.50;;;180.23;;
9900;SDS011;4989;48.772;9.154;2023-04-25T23:46:41;262.73;;;219.70;;
9900;SDS011;4989;48.772;9.154;2023-04-25T23:51:43;258.33;;;206.37;;
9900;SDS011;4989;48.772;9.154;2023-04-25T23:56:46;255.07;;;210.27;;
